Time,TemperatureF,DewpointF,PressureIn,WindDirection,WindDirectionDegrees,WindSpeedMPH,WindSpeedGustMPH,Humidity,HourlyPrecipIn,Conditions,Clouds,dailyrainin,SoftwareType,DateUTC
2013-08-23 00:13:00,79.0,69.0,29.98,North,0,0.0,0.0,71,0.00,,,0.00,,2013-08-23 05:13:00,
2013-08-23 00:22:00,79.0,69.0,29.98,North,0,0.0,0.0,71,0.00,,,0.00,,2013-08-23 05:22:00,
2013-08-23 00:34:00,79.0,69.0,29.98,North,0,0.0,0.0,71,0.00,,,0.00,,2013-08-23 05:34:00,
2013-08-23 00:53:00,78.0,69.0,29.98,North,0,0.0,0.0,74,0.00,,,0.00,,2013-08-23 05:53:00,
2013-08-23 01:02:00,78.0,69.0,29.98,North,0,0.0,0.0,74,0.00,,,0.00,,2013-08-23 06:02:00,
2013-08-23 01:12:00,78.0,69.0,29.98,North,0,0.0,0.0,74,0.00,,,0.00,,2013-08-23 06:12:00,
2013-08-23 01:22:00,78.0,69.0,29.98,North,0,0.0,0.0,74,0.00,,,0.00,,2013-08-23 06:22:00,
2013-08-23 01:52:00,78.0,69.0,29.98,North,0,0.0,0.0,75,0.00,,,0.00,,2013-08-23 06:52:00,
2013-08-23 02:01:00,78.0,69.0,29.98,North,0,0.0,0.0,75,0.00,,,0.00,,2013-08-23 07:01:00,
2013-08-23 02:12:00,78.0,69.0,29.98,North,0,0.0,0.0,75,0.00,,,0.00,,2013-08-23 07:12:00,
2013-08-23 02:22:00,78.0,69.0,29.98,North,0,0.0,0.0,75,0.00,,,0.00,,2013-08-23 07:22:00,
2013-08-23 02:42:00,77.0,69.0,29.97,North,0,0.0,0.0,77,0.00,,,0.00,,2013-08-23 07:42:00,
2013-08-23 02:52:00,77.0,69.0,29.97,North,0,0.0,0.0,77,0.00,,,0.00,,2013-08-23 07:52:00,
2013-08-23 03:13:00,76.0,68.0,29.97,North,0,0.0,0.0,77,0.00,,,0.00,,2013-08-23 08:13:00,
2013-08-23 03:22:00,76.0,68.0,29.97,North,0,0.0,0.0,77,0.00,,,0.00,,2013-08-23 08:22:00,
2013-08-23 03:32:00,76.0,68.0,29.97,North,0,0.0,0.0,77,0.00,,,0.00,,2013-08-23 08:32:00,
2013-08-23 04:12:00,75.0,68.0,29.97,North,0,0.0,0.0,80,0.00,,,0.00,,2013-08-23 09:12:00,
2013-08-23 04:21:00,75.0,68.0,29.97,North,0,0.0,0.0,80,0.00,,,0.00,,2013-08-23 09:21:00,
2013-08-23 04:53:00,74.0,67.0,29.97,North,0,0.0,0.0,80,0.00,,,0.00,,2013-08-23 09:53:00,
2013-08-23 05:13:00,73.0,68.0,29.96,North,0,0.0,0.0,83,0.00,,,0.00,,2013-08-23 10:13:00,
2013-08-23 05:23:00,73.0,68.0,29.96,North,0,0.0,0.0,83,0.00,,,0.00,,2013-08-23 10:23:00,
2013-08-23 05:33:00,73.0,68.0,29.96,North,0,0.0,0.0,83,0.00,,,0.00,,2013-08-23 10:33:00,
2013-08-23 05:42:00,73.0,68.0,29.96,North,0,0.0,0.0,83,0.00,,,0.00,,2013-08-23 10:42:00,
2013-08-23 06:22:00,71.0,66.0,29.97,North,0,0.0,0.0,85,0.00,,,0.00,,2013-08-23 11:22:00,
2013-08-23 06:53:00,71.0,66.0,29.97,North,0,0.0,0.0,85,0.00,,,0.00,,2013-08-23 11:53:00,
2013-08-23 07:11:00,71.0,67.0,29.98,North,0,0.0,0.0,87,0.00,,,0.00,,2013-08-23 12:11:00,
2013-08-23 07:22:00,71.0,67.0,29.98,North,0,0.0,0.0,87,0.00,,,0.00,,2013-08-23 12:22:00,
2013-08-23 07:31:00,71.0,67.0,29.98,North,0,0.0,0.0,87,0.00,,,0.00,,2013-08-23 12:31:00,
2013-08-23 07:42:00,71.0,67.0,29.98,North,0,0.0,0.0,87,0.00,,,0.00,,2013-08-23 12:42:00,
2013-08-23 07:52:00,70.0,66.0,30.00,North,0,0.0,0.0,86,0.00,,,0.00,,2013-08-23 12:52:00,
2013-08-23 08:12:00,71.0,67.0,30.00,North,0,0.0,0.0,87,0.00,,,0.00,,2013-08-23 13:12:00,
2013-08-23 08:22:00,71.0,67.0,30.00,North,0,0.0,0.0,87,0.00,,,0.00,,2013-08-23 13:22:00,
2013-08-23 08:32:00,71.0,67.0,30.00,North,0,0.0,0.0,87,0.00,,,0.00,,2013-08-23 13:32:00,
2013-08-23 08:42:00,71.0,67.0,30.00,North,0,0.0,0.0,87,0.00,,,0.00,,2013-08-23 13:42:00,
2013-08-23 09:12:00,76.0,72.0,30.00,North,0,0.0,0.0,86,0.00,,,0.00,,2013-08-23 14:12:00,
2013-08-23 09:22:00,78.0,72.0,30.00,North,0,0.0,0.0,83,0.00,,,0.00,,2013-08-23 14:22:00,
2013-08-23 09:52:00,78.0,72.0,30.01,North,0,0.0,0.0,82,0.00,,,0.00,,2013-08-23 14:52:00,
2013-08-23 10:01:00,78.0,72.0,30.01,North,0,0.0,0.0,82,0.00,,,0.00,,2013-08-23 15:01:00,
2013-08-23 10:11:00,78.0,72.0,30.01,North,0,0.0,0.0,82,0.00,,,0.00,,2013-08-23 15:11:00,
2013-08-23 10:54:00,88.0,71.0,30.00,North,0,0.0,0.0,58,0.00,,,0.00,,2013-08-23 15:54:00,
2013-08-23 11:05:00,88.0,71.0,30.00,North,0,0.0,0.0,58,0.00,,,0.00,,2013-08-23 16:05:00,
2013-08-23 11:13:00,88.0,71.0,30.00,North,0,0.0,0.0,58,0.00,,,0.00,,2013-08-23 16:13:00,
2013-08-23 11:24:00,88.0,71.0,30.00,North,0,0.0,0.0,58,0.00,,,0.00,,2013-08-23 16:24:00,
2013-08-23 13:22:00,96.0,70.0,30.00,North,0,0.0,0.0,43,0.00,,,0.00,,2013-08-23 18:22:00,
2013-08-23 17:53:00,100.0,66.0,29.90,North,0,0.0,0.0,33,0.00,,,0.00,,2013-08-23 22:53:00,
2013-08-23 18:03:00,100.0,66.0,29.90,North,0,0.0,0.0,33,0.00,,,0.00,,2013-08-23 23:03:00,
2013-08-23 18:12:00,100.0,66.0,29.90,North,0,0.0,0.0,33,0.00,,,0.00,,2013-08-23 23:12:00,
2013-08-23 18:54:00,97.0,66.0,29.90,North,0,0.0,0.0,37,0.00,,,0.00,,2013-08-23 23:54:00,
2013-08-23 19:02:00,97.0,66.0,29.90,North,0,0.0,0.0,37,0.00,,,0.00,,2013-08-24 00:02:00,
2013-08-23 19:21:00,94.0,65.0,29.89,North,0,0.0,0.0,39,0.00,,,0.00,,2013-08-24 00:21:00,
2013-08-23 19:32:00,94.0,65.0,29.89,North,0,0.0,0.0,39,0.00,,,0.00,,2013-08-24 00:32:00,
2013-08-23 19:43:00,94.0,65.0,29.89,North,0,0.0,0.0,39,0.00,,,0.00,,2013-08-24 00:43:00,
2013-08-23 19:53:00,94.0,65.0,29.89,North,0,0.0,0.0,39,0.00,,,0.00,,2013-08-24 00:53:00,
2013-08-23 20:02:00,94.0,65.0,29.89,North,0,0.0,0.0,39,0.00,,,0.00,,2013-08-24 01:02:00,
2013-08-23 21:12:00,85.0,64.0,29.91,North,0,0.0,0.0,50,0.00,,,0.00,,2013-08-24 02:12:00,
2013-08-23 21:22:00,85.0,64.0,29.91,North,0,0.0,0.0,50,0.00,,,0.00,,2013-08-24 02:22:00,
2013-08-23 21:32:00,85.0,64.0,29.91,North,0,0.0,0.0,50,0.00,,,0.00,,2013-08-24 02:32:00,
2013-08-23 21:42:00,85.0,64.0,29.91,North,0,0.0,0.0,50,0.00,,,0.00,,2013-08-24 02:42:00,
2013-08-23 21:52:00,83.0,64.0,29.92,North,0,0.0,0.0,53,0.00,,,0.00,,2013-08-24 02:52:00,
2013-08-23 22:22:00,83.0,65.0,29.93,North,0,0.0,0.0,54,0.00,,,0.00,,2013-08-24 03:22:00,
2013-08-23 22:34:00,83.0,65.0,29.93,North,0,0.0,0.0,54,0.00,,,0.00,,2013-08-24 03:34:00,
2013-08-23 22:44:00,83.0,65.0,29.93,North,0,0.0,0.0,54,0.00,,,0.00,,2013-08-24 03:44:00,
2013-08-23 22:54:00,83.0,65.0,29.93,North,0,0.0,0.0,54,0.00,,,0.00,,2013-08-24 03:54:00,
2013-08-23 23:14:00,83.0,65.0,29.95,North,0,0.0,0.0,55,0.00,,,0.00,,2013-08-24 04:14:00,
2013-08-23 23:20:00,82.0,66.0,29.95,North,0,0.0,0.0,58,0.00,,,0.00,,2013-08-24 04:20:00,
2013-08-23 23:24:00,83.0,65.0,29.95,North,0,0.0,0.0,55,0.00,,,0.00,,2013-08-24 04:24:00,
2013-08-23 23:44:00,82.0,65.0,29.95,North,0,0.0,0.0,57,0.00,,,0.00,,2013-08-24 04:44:00,
2013-08-23 23:53:00,82.0,66.0,29.95,North,0,0.0,0.0,58,0.00,,,0.00,,2013-08-24 04:53:00,